sensor_id;sensor_type;location;lat;lon;timestamp;P1;durP1;ratioP1;P2;durP2;ratioP2
9914;SDS011;4996;48.746;9.174;2024-01-07T00:01:46;21.67;;;11.77;;
9914;SDS011;4996;48.746;9.174;2024-01-07T00:04:14;25.00;;;13.63;;
9914;SDS011;4996;48.746;9.174;2024-01-07T00:06:43;20.07;;;11.07;;
9914;SDS011;4996;48.746;9.174;2024-01-07T00:09:08;26.57;;;12.77;;
9914;SDS011;4996;48.746;9.174;2024-01-07T00:11:37;20.23;;;12.00;;
9914;SDS011;4996;48.746;9.174;2024-01-07T00:14:02;28.03;;;13.67;;
9914;SDS011;4996;48.746;9.174;2024-01-07T00:16:28;23.70;;;12.50;;
9914;SDS011;4996;48.746;9.174;2024-01-07T00:18:53;19.37;;;11.20;;
9914;SDS011;4996;48.746;9.174;2024-01-07T00:21:19;22.20;;;11.43;;
9914;SDS011;4996;48.746;9.174;2024-01-07T00:23:45;19.60;;;8.70;;
9914;SDS011;4996;48.746;9.174;2024-01-07T00:26:10;23.57;;;12.70;;
9914;SDS011;4996;48.746;9.174;2024-01-07T00:28:36;18.90;;;10.67;;
9914;SDS011;4996;48.746;9.174;2024-01-07T00:31:01;23.40;;;13.10;;
9914;SDS011;4996;48.746;9.174;2024-01-07T00:33:27;17.90;;;11.60;;
9914;SDS011;4996;48.746;9.174;2024-01-07T00:35:53;28.10;;;12.77;;
9914;SDS011;4996;48.746;9.174;2024-01-07T00:38:18;23.27;;;11.77;;
9914;SDS011;4996;48.746;9.174;2024-01-07T00:40:44;18.27;;;10.57;;
9914;SDS011;4996;48.746;9.174;2024-01-07T00:43:10;20.00;;;10.60;;
9914;SDS011;4996;48.746;9.174;2024-01-07T00:45:35;18.70;;;11.10;;
9914;SDS011;4996;48.746;9.174;2024-01-07T00:48:01;19.17;;;11.00;;
9914;SDS011;4996;48.746;9.174;2024-01-07T00:50:26;22.67;;;12.00;;
9914;SDS011;4996;48.746;9.174;2024-01-07T00:52:52;25.67;;;12.80;;
9914;SDS011;4996;48.746;9.174;2024-01-07T00:55:17;22.47;;;11.70;;
9914;SDS011;4996;48.746;9.174;2024-01-07T00:57:43;20.33;;;11.13;;
9914;SDS011;4996;48.746;9.174;2024-01-07T01:00:08;26.77;;;12.90;;
9914;SDS011;4996;48.746;9.174;2024-01-07T01:02:34;22.83;;;12.80;;
9914;SDS011;4996;48.746;9.174;2024-01-07T01:05:02;20.80;;;11.33;;
9914;SDS011;4996;48.746;9.174;2024-01-07T01:07:27;20.50;;;11.17;;
9914;SDS011;4996;48.746;9.174;2024-01-07T01:09:53;22.93;;;11.83;;
9914;SDS011;4996;48.746;9.174;2024-01-07T01:12:18;21.90;;;11.80;;
9914;SDS011;4996;48.746;9.174;2024-01-07T01:14:44;18.67;;;9.67;;
9914;SDS011;4996;48.746;9.174;2024-01-07T01:17:09;24.70;;;12.70;;
9914;SDS011;4996;48.746;9.174;2024-01-07T01:19:35;21.87;;;11.63;;
9914;SDS011;4996;48.746;9.174;2024-01-07T01:22:00;24.50;;;13.07;;
9914;SDS011;4996;48.746;9.174;2024-01-07T01:24:26;25.20;;;12.40;;
9914;SDS011;4996;48.746;9.174;2024-01-07T01:26:51;22.50;;;11.53;;
9914;SDS011;4996;48.746;9.174;2024-01-07T01:29:17;28.73;;;13.90;;
9914;SDS011;4996;48.746;9.174;2024-01-07T01:34:24;25.20;;;12.50;;
9914;SDS011;4996;48.746;9.174;2024-01-07T01:36:49;23.47;;;12.37;;
9914;SDS011;4996;48.746;9.174;2024-01-07T01:39:15;26.63;;;13.53;;
9914;SDS011;4996;48.746;9.174;2024-01-07T01:41:40;25.30;;;12.10;;
9914;SDS011;4996;48.746;9.174;2024-01-07T01:44:06;28.37;;;13.77;;
9914;SDS011;4996;48.746;9.174;2024-01-07T01:46:31;29.33;;;12.70;;
9914;SDS011;4996;48.746;9.174;2024-01-07T01:48:57;21.23;;;10.87;;
9914;SDS011;4996;48.746;9.174;2024-01-07T01:51:23;25.60;;;13.80;;
9914;SDS011;4996;48.746;9.174;2024-01-07T01:53:49;26.20;;;12.90;;
9914;SDS011;4996;48.746;9.174;2024-01-07T01:56:17;28.30;;;12.60;;
9914;SDS011;4996;48.746;9.174;2024-01-07T01:58:45;25.03;;;12.80;;
9914;SDS011;4996;48.746;9.174;2024-01-07T02:01:11;35.70;;;13.93;;
9914;SDS011;4996;48.746;9.174;2024-01-07T02:03:37;35.43;;;13.93;;
9914;SDS011;4996;48.746;9.174;2024-01-07T02:06:03;28.67;;;14.60;;
9914;SDS011;4996;48.746;9.174;2024-01-07T02:08:29;25.80;;;10.40;;
9914;SDS011;4996;48.746;9.174;2024-01-07T02:10:54;29.00;;;12.93;;
9914;SDS011;4996;48.746;9.174;2024-01-07T02:13:20;30.80;;;14.30;;
9914;SDS011;4996;48.746;9.174;2024-01-07T02:15:46;13.63;;;7.57;;
9914;SDS011;4996;48.746;9.174;2024-01-07T02:18:11;33.63;;;14.03;;
9914;SDS011;4996;48.746;9.174;2024-01-07T02:20:37;37.23;;;13.30;;
9914;SDS011;4996;48.746;9.174;2024-01-07T02:23:03;41.67;;;12.23;;
9914;SDS011;4996;48.746;9.174;2024-01-07T02:25:29;27.50;;;13.23;;
9914;SDS011;4996;48.746;9.174;2024-01-07T02:27:54;36.97;;;13.37;;
9914;SDS011;4996;48.746;9.174;2024-01-07T02:30:20;31.00;;;10.30;;
9914;SDS011;4996;48.746;9.174;2024-01-07T02:36:07;30.65;;;14.13;;
9914;SDS011;4996;48.746;9.174;2024-01-07T02:38:33;28.27;;;12.70;;
9914;SDS011;4996;48.746;9.174;2024-01-07T02:40:58;24.20;;;13.03;;
9914;SDS011;4996;48.746;9.174;2024-01-07T02:43:24;29.63;;;13.97;;
9914;SDS011;4996;48.746;9.174;2024-01-07T02:45:49;32.20;;;14.00;;
9914;SDS011;4996;48.746;9.174;2024-01-07T02:48:15;26.87;;;13.60;;
9914;SDS011;4996;48.746;9.174;2024-01-07T02:50:40;28.87;;;13.13;;
9914;SDS011;4996;48.746;9.174;2024-01-07T02:53:06;28.10;;;13.27;;
9914;SDS011;4996;48.746;9.174;2024-01-07T02:55:33;27.37;;;15.47;;
9914;SDS011;4996;48.746;9.174;2024-01-07T02:57:58;27.20;;;14.00;;
9914;SDS011;4996;48.746;9.174;2024-01-07T03:00:24;18.80;;;11.73;;
9914;SDS011;4996;48.746;9.174;2024-01-07T03:02:49;26.63;;;15.03;;
9914;SDS011;4996;48.746;9.174;2024-01-07T03:05:15;33.70;;;15.50;;
9914;SDS011;4996;48.746;9.174;2024-01-07T03:07:40;28.90;;;15.97;;
9914;SDS011;4996;48.746;9.174;2024-01-07T03:10:06;25.97;;;14.60;;
9914;SDS011;4996;48.746;9.174;2024-01-07T03:12:32;23.93;;;15.07;;
9914;SDS011;4996;48.746;9.174;2024-01-07T03:14:57;27.83;;;14.60;;
9914;SDS011;4996;48.746;9.174;2024-01-07T03:17:23;29.77;;;13.20;;
9914;SDS011;4996;48.746;9.174;2024-01-07T03:19:49;26.83;;;14.47;;
9914;SDS011;4996;48.746;9.174;2024-01-07T03:22:14;26.40;;;14.63;;
9914;SDS011;4996;48.746;9.174;2024-01-07T03:24:41;27.57;;;15.23;;
9914;SDS011;4996;48.746;9.174;2024-01-07T03:27:07;28.08;;;14.40;;
9914;SDS011;4996;48.746;9.174;2024-01-07T03:29:32;28.13;;;15.53;;
9914;SDS011;4996;48.746;9.174;2024-01-07T03:31:58;30.00;;;15.43;;
9914;SDS011;4996;48.746;9.174;2024-01-07T03:34:23;27.97;;;15.73;;
9914;SDS011;4996;48.746;9.174;2024-01-07T03:36:49;22.40;;;12.10;;
9914;SDS011;4996;48.746;9.174;2024-01-07T03:39:14;24.60;;;12.67;;
9914;SDS011;4996;48.746;9.174;2024-01-07T03:41:40;16.73;;;10.27;;
9914;SDS011;4996;48.746;9.174;2024-01-07T03:44:05;28.60;;;14.60;;
9914;SDS011;4996;48.746;9.174;2024-01-07T03:46:31;19.67;;;11.93;;
9914;SDS011;4996;48.746;9.174;2024-01-07T03:48:57;22.17;;;12.80;;
9914;SDS011;4996;48.746;9.174;2024-01-07T03:51:22;24.00;;;12.80;;
9914;SDS011;4996;48.746;9.174;2024-01-07T03:53:47;22.60;;;12.97;;
9914;SDS011;4996;48.746;9.174;2024-01-07T03:56:13;21.17;;;12.80;;
9914;SDS011;4996;48.746;9.174;2024-01-07T03:58:38;24.00;;;13.40;;
9914;SDS011;4996;48.746;9.174;2024-01-07T04:01:24;29.45;;;12.70;;
9914;SDS011;4996;48.746;9.174;2024-01-07T04:03:49;29.87;;;13.27;;
9914;SDS011;4996;48.746;9.174;2024-01-07T04:06:15;25.47;;;13.73;;
9914;SDS011;4996;48.746;9.174;2024-01-07T04:08:40;24.23;;;12.33;;
9914;SDS011;4996;48.746;9.174;2024-01-07T04:11:06;17.87;;;11.30;;
9914;SDS011;4996;48.746;9.174;2024-01-07T04:13:31;26.37;;;15.37;;
9914;SDS011;4996;48.746;9.174;2024-01-07T04:15:57;21.93;;;9.87;;
9914;SDS011;4996;48.746;9.174;2024-01-07T04:18:22;28.17;;;14.03;;
9914;SDS011;4996;48.746;9.174;2024-01-07T04:20:48;25.27;;;12.17;;
9914;SDS011;4996;48.746;9.174;2024-01-07T04:23:13;24.70;;;12.83;;
9914;SDS011;4996;48.746;9.174;2024-01-07T04:25:39;23.00;;;14.30;;
9914;SDS011;4996;48.746;9.174;2024-01-07T04:28:07;29.00;;;12.57;;
9914;SDS011;4996;48.746;9.174;2024-01-07T04:30:32;21.17;;;12.10;;
9914;SDS011;4996;48.746;9.174;2024-01-07T04:32:58;32.10;;;15.30;;
9914;SDS011;4996;48.746;9.174;2024-01-07T04:35:23;34.20;;;13.70;;
9914;SDS011;4996;48.746;9.174;2024-01-07T04:37:49;16.40;;;9.97;;
9914;SDS011;4996;48.746;9.174;2024-01-07T04:40:14;22.77;;;12.33;;
9914;SDS011;4996;48.746;9.174;2024-01-07T04:42:40;22.33;;;12.27;;
9914;SDS011;4996;48.746;9.174;2024-01-07T04:45:06;18.87;;;9.10;;
9914;SDS011;4996;48.746;9.174;2024-01-07T04:47:32;25.60;;;13.90;;
9914;SDS011;4996;48.746;9.174;2024-01-07T04:50:02;25.33;;;12.13;;
9914;SDS011;4996;48.746;9.174;2024-01-07T04:52:28;21.77;;;11.90;;
9914;SDS011;4996;48.746;9.174;2024-01-07T04:54:54;26.83;;;14.20;;
9914;SDS011;4996;48.746;9.174;2024-01-07T04:57:20;27.77;;;14.43;;
9914;SDS011;4996;48.746;9.174;2024-01-07T04:59:46;18.33;;;11.10;;
9914;SDS011;4996;48.746;9.174;2024-01-07T05:02:12;22.57;;;11.53;;
9914;SDS011;4996;48.746;9.174;2024-01-07T05:04:38;28.93;;;11.90;;
9914;SDS011;4996;48.746;9.174;2024-01-07T05:07:04;25.80;;;12.30;;
9914;SDS011;4996;48.746;9.174;2024-01-07T05:09:29;18.57;;;11.03;;
9914;SDS011;4996;48.746;9.174;2024-01-07T05:11:56;23.93;;;11.90;;
9914;SDS011;4996;48.746;9.174;2024-01-07T05:14:21;25.77;;;13.17;;
9914;SDS011;4996;48.746;9.174;2024-01-07T05:16:47;26.53;;;12.27;;
9914;SDS011;4996;48.746;9.174;2024-01-07T05:19:13;23.53;;;11.63;;
9914;SDS011;4996;48.746;9.174;2024-01-07T05:21:38;20.13;;;11.00;;
9914;SDS011;4996;48.746;9.174;2024-01-07T05:24:04;21.93;;;10.20;;
9914;SDS011;4996;48.746;9.174;2024-01-07T05:26:30;25.03;;;11.57;;
9914;SDS011;4996;48.746;9.174;2024-01-07T05:28:55;18.77;;;9.33;;
9914;SDS011;4996;48.746;9.174;2024-01-07T05:31:21;17.93;;;10.07;;
9914;SDS011;4996;48.746;9.174;2024-01-07T05:33:46;17.93;;;10.00;;
9914;SDS011;4996;48.746;9.174;2024-01-07T05:36:12;18.87;;;10.60;;
9914;SDS011;4996;48.746;9.174;2024-01-07T05:38:38;20.70;;;11.03;;
9914;SDS011;4996;48.746;9.174;2024-01-07T05:41:04;19.53;;;10.83;;
9914;SDS011;4996;48.746;9.174;2024-01-07T05:43:30;20.20;;;10.43;;
9914;SDS011;4996;48.746;9.174;2024-01-07T05:45:55;19.53;;;9.73;;
9914;SDS011;4996;48.746;9.174;2024-01-07T05:48:21;19.80;;;11.00;;
9914;SDS011;4996;48.746;9.174;2024-01-07T05:50:47;16.65;;;10.50;;
9914;SDS011;4996;48.746;9.174;2024-01-07T05:53:13;17.77;;;10.80;;
9914;SDS011;4996;48.746;9.174;2024-01-07T05:55:39;19.97;;;11.20;;
9914;SDS011;4996;48.746;9.174;2024-01-07T05:58:04;19.17;;;11.17;;
9914;SDS011;4996;48.746;9.174;2024-01-07T06:00:30;15.10;;;9.10;;
9914;SDS011;4996;48.746;9.174;2024-01-07T06:02:55;18.63;;;10.00;;
9914;SDS011;4996;48.746;9.174;2024-01-07T06:05:21;19.63;;;10.53;;
9914;SDS011;4996;48.746;9.174;2024-01-07T06:07:46;24.57;;;10.87;;
9914;SDS011;4996;48.746;9.174;2024-01-07T06:10:12;20.57;;;11.20;;
9914;SDS011;4996;48.746;9.174;2024-01-07T06:12:37;16.30;;;9.20;;
9914;SDS011;4996;48.746;9.174;2024-01-07T06:15:03;20.57;;;10.90;;
9914;SDS011;4996;48.746;9.174;2024-01-07T06:17:30;21.73;;;10.47;;
9914;SDS011;4996;48.746;9.174;2024-01-07T06:19:56;19.70;;;10.60;;
9914;SDS011;4996;48.746;9.174;2024-01-07T06:22:21;16.67;;;9.77;;
9914;SDS011;4996;48.746;9.174;2024-01-07T06:24:47;21.97;;;10.47;;
9914;SDS011;4996;48.746;9.174;2024-01-07T06:27:13;16.73;;;10.07;;
9914;SDS011;4996;48.746;9.174;2024-01-07T06:29:38;20.10;;;11.53;;
9914;SDS011;4996;48.746;9.174;2024-01-07T06:32:04;22.17;;;9.93;;
9914;SDS011;4996;48.746;9.174;2024-01-07T06:34:29;15.87;;;9.60;;
9914;SDS011;4996;48.746;9.174;2024-01-07T06:36:55;18.50;;;10.90;;
9914;SDS011;4996;48.746;9.174;2024-01-07T06:39:21;16.40;;;9.43;;
9914;SDS011;4996;48.746;9.174;2024-01-07T06:41:46;16.63;;;9.60;;
9914;SDS011;4996;48.746;9.174;2024-01-07T06:44:11;15.93;;;9.33;;
9914;SDS011;4996;48.746;9.174;2024-01-07T06:46:37;20.67;;;11.00;;
9914;SDS011;4996;48.746;9.174;2024-01-07T06:49:02;14.03;;;10.60;;
9914;SDS011;4996;48.746;9.174;2024-01-07T06:51:28;16.43;;;10.30;;
9914;SDS011;4996;48.746;9.174;2024-01-07T06:53:53;17.03;;;9.30;;
9914;SDS011;4996;48.746;9.174;2024-01-07T06:56:19;16.40;;;9.60;;
9914;SDS011;4996;48.746;9.174;2024-01-07T06:58:44;19.60;;;11.20;;
9914;SDS011;4996;48.746;9.174;2024-01-07T07:01:10;16.70;;;10.30;;
9914;SDS011;4996;48.746;9.174;2024-01-07T07:03:36;16.80;;;11.20;;
9914;SDS011;4996;48.746;9.174;2024-01-07T07:06:02;14.53;;;8.50;;
9914;SDS011;4996;48.746;9.174;2024-01-07T07:08:27;20.50;;;11.20;;
9914;SDS011;4996;48.746;9.174;2024-01-07T07:10:53;18.87;;;9.93;;
9914;SDS011;4996;48.746;9.174;2024-01-07T07:13:18;24.73;;;11.60;;
9914;SDS011;4996;48.746;9.174;2024-01-07T07:15:44;13.67;;;9.03;;
9914;SDS011;4996;48.746;9.174;2024-01-07T07:18:09;9.17;;;6.90;;
9914;SDS011;4996;48.746;9.174;2024-01-07T07:20:35;18.80;;;10.00;;
9914;SDS011;4996;48.746;9.174;2024-01-07T07:23:00;16.27;;;9.87;;
9914;SDS011;4996;48.746;9.174;2024-01-07T07:25:26;13.60;;;9.40;;
9914;SDS011;4996;48.746;9.174;2024-01-07T07:27:51;14.10;;;8.40;;
9914;SDS011;4996;48.746;9.174;2024-01-07T07:30:17;16.47;;;9.50;;
9914;SDS011;4996;48.746;9.174;2024-01-07T07:32:43;15.03;;;10.23;;
9914;SDS011;4996;48.746;9.174;2024-01-07T07:35:09;15.90;;;9.90;;
9914;SDS011;4996;48.746;9.174;2024-01-07T07:37:35;18.07;;;10.53;;
9914;SDS011;4996;48.746;9.174;2024-01-07T07:40:00;16.60;;;9.13;;
9914;SDS011;4996;48.746;9.174;2024-01-07T07:42:26;14.13;;;9.37;;
9914;SDS011;4996;48.746;9.174;2024-01-07T07:44:52;14.63;;;8.90;;
9914;SDS011;4996;48.746;9.174;2024-01-07T07:47:17;14.37;;;9.13;;
9914;SDS011;4996;48.746;9.174;2024-01-07T07:49:43;14.27;;;7.80;;
9914;SDS011;4996;48.746;9.174;2024-01-07T07:52:08;10.90;;;6.40;;
9914;SDS011;4996;48.746;9.174;2024-01-07T07:54:36;13.85;;;8.93;;
9914;SDS011;4996;48.746;9.174;2024-01-07T07:57:02;14.60;;;7.90;;
9914;SDS011;4996;48.746;9.174;2024-01-07T07:59:28;18.27;;;7.53;;
9914;SDS011;4996;48.746;9.174;2024-01-07T08:01:54;16.90;;;8.77;;
9914;SDS011;4996;48.746;9.174;2024-01-07T08:04:19;12.33;;;7.20;;
9914;SDS011;4996;48.746;9.174;2024-01-07T08:06:45;15.63;;;7.97;;
9914;SDS011;4996;48.746;9.174;2024-01-07T08:09:10;11.77;;;6.17;;
9914;SDS011;4996;48.746;9.174;2024-01-07T08:11:36;14.13;;;8.63;;
9914;SDS011;4996;48.746;9.174;2024-01-07T08:14:01;10.17;;;7.30;;
9914;SDS011;4996;48.746;9.174;2024-01-07T08:16:27;15.20;;;8.30;;
9914;SDS011;4996;48.746;9.174;2024-01-07T08:18:53;16.90;;;9.23;;
9914;SDS011;4996;48.746;9.174;2024-01-07T08:21:21;8.80;;;4.90;;
9914;SDS011;4996;48.746;9.174;2024-01-07T08:23:48;11.55;;;6.60;;
9914;SDS011;4996;48.746;9.174;2024-01-07T08:26:18;8.10;;;4.90;;
9914;SDS011;4996;48.746;9.174;2024-01-07T08:28:44;9.15;;;6.72;;
9914;SDS011;4996;48.746;9.174;2024-01-07T08:31:10;9.10;;;5.67;;
9914;SDS011;4996;48.746;9.174;2024-01-07T08:33:35;8.90;;;5.50;;
9914;SDS011;4996;48.746;9.174;2024-01-07T08:36:01;12.83;;;6.40;;
9914;SDS011;4996;48.746;9.174;2024-01-07T08:38:26;8.83;;;5.33;;
9914;SDS011;4996;48.746;9.174;2024-01-07T08:40:52;10.57;;;7.50;;
9914;SDS011;4996;48.746;9.174;2024-01-07T08:43:17;9.40;;;6.23;;
9914;SDS011;4996;48.746;9.174;2024-01-07T08:45:43;6.57;;;5.00;;
9914;SDS011;4996;48.746;9.174;2024-01-07T08:48:08;10.93;;;6.47;;
9914;SDS011;4996;48.746;9.174;2024-01-07T08:50:34;9.70;;;5.23;;
9914;SDS011;4996;48.746;9.174;2024-01-07T08:53:00;9.90;;;6.10;;
9914;SDS011;4996;48.746;9.174;2024-01-07T08:55:25;15.20;;;8.70;;
9914;SDS011;4996;48.746;9.174;2024-01-07T08:57:52;13.48;;;6.90;;
9914;SDS011;4996;48.746;9.174;2024-01-07T09:00:17;14.10;;;6.80;;
9914;SDS011;4996;48.746;9.174;2024-01-07T09:02:43;12.80;;;7.17;;
9914;SDS011;4996;48.746;9.174;2024-01-07T09:05:09;13.60;;;7.07;;
9914;SDS011;4996;48.746;9.174;2024-01-07T09:07:34;15.17;;;7.43;;
9914;SDS011;4996;48.746;9.174;2024-01-07T09:10:00;12.87;;;7.50;;
9914;SDS011;4996;48.746;9.174;2024-01-07T09:12:26;7.80;;;4.77;;
9914;SDS011;4996;48.746;9.174;2024-01-07T09:14:52;14.70;;;7.63;;
9914;SDS011;4996;48.746;9.174;2024-01-07T09:17:17;11.70;;;7.20;;
9914;SDS011;4996;48.746;9.174;2024-01-07T09:19:43;9.90;;;4.23;;
9914;SDS011;4996;48.746;9.174;2024-01-07T09:22:09;6.50;;;4.30;;
9914;SDS011;4996;48.746;9.174;2024-01-07T09:24:36;26.38;;;12.13;;
9914;SDS011;4996;48.746;9.174;2024-01-07T09:27:01;26.57;;;13.73;;
9914;SDS011;4996;48.746;9.174;2024-01-07T09:29:27;9.73;;;5.33;;
9914;SDS011;4996;48.746;9.174;2024-01-07T09:31:53;7.53;;;4.10;;
9914;SDS011;4996;48.746;9.174;2024-01-07T09:34:18;8.83;;;4.87;;
9914;SDS011;4996;48.746;9.174;2024-01-07T09:36:44;6.33;;;4.87;;
9914;SDS011;4996;48.746;9.174;2024-01-07T09:39:09;10.23;;;5.57;;
9914;SDS011;4996;48.746;9.174;2024-01-07T09:41:35;7.57;;;4.70;;
9914;SDS011;4996;48.746;9.174;2024-01-07T09:44:00;10.60;;;4.93;;
9914;SDS011;4996;48.746;9.174;2024-01-07T09:48:54;7.72;;;4.80;;
9914;SDS011;4996;48.746;9.174;2024-01-07T09:51:21;8.87;;;4.77;;
9914;SDS011;4996;48.746;9.174;2024-01-07T09:53:48;9.18;;;4.97;;
9914;SDS011;4996;48.746;9.174;2024-01-07T09:56:19;8.15;;;4.70;;
9914;SDS011;4996;48.746;9.174;2024-01-07T09:58:47;8.95;;;4.43;;
9914;SDS011;4996;48.746;9.174;2024-01-07T10:01:15;8.10;;;4.93;;
9914;SDS011;4996;48.746;9.174;2024-01-07T10:03:44;9.18;;;5.53;;
9914;SDS011;4996;48.746;9.174;2024-01-07T10:06:13;8.83;;;5.27;;
9914;SDS011;4996;48.746;9.174;2024-01-07T10:08:39;6.47;;;4.28;;
9914;SDS011;4996;48.746;9.174;2024-01-07T10:11:05;8.48;;;5.53;;
9914;SDS011;4996;48.746;9.174;2024-01-07T10:13:31;7.43;;;4.33;;
9914;SDS011;4996;48.746;9.174;2024-01-07T10:15:57;6.53;;;4.70;;
9914;SDS011;4996;48.746;9.174;2024-01-07T10:18:22;7.40;;;4.00;;
9914;SDS011;4996;48.746;9.174;2024-01-07T10:20:48;6.40;;;4.27;;
9914;SDS011;4996;48.746;9.174;2024-01-07T10:23:20;7.97;;;4.50;;
9914;SDS011;4996;48.746;9.174;2024-01-07T10:25:45;11.05;;;5.88;;
9914;SDS011;4996;48.746;9.174;2024-01-07T10:28:12;6.10;;;3.80;;
9914;SDS011;4996;48.746;9.174;2024-01-07T10:30:39;7.50;;;4.75;;
9914;SDS011;4996;48.746;9.174;2024-01-07T10:33:05;7.97;;;4.47;;
9914;SDS011;4996;48.746;9.174;2024-01-07T10:35:33;5.82;;;4.03;;
9914;SDS011;4996;48.746;9.174;2024-01-07T10:38:00;7.53;;;4.85;;
9914;SDS011;4996;48.746;9.174;2024-01-07T10:40:27;4.50;;;3.40;;
9914;SDS011;4996;48.746;9.174;2024-01-07T10:42:54;9.90;;;6.00;;
9914;SDS011;4996;48.746;9.174;2024-01-07T10:45:20;6.00;;;4.07;;
9914;SDS011;4996;48.746;9.174;2024-01-07T10:47:48;9.55;;;5.00;;
9914;SDS011;4996;48.746;9.174;2024-01-07T10:50:17;6.30;;;3.75;;
9914;SDS011;4996;48.746;9.174;2024-01-07T10:52:44;12.23;;;5.90;;
9914;SDS011;4996;48.746;9.174;2024-01-07T10:55:15;10.00;;;5.40;;
9914;SDS011;4996;48.746;9.174;2024-01-07T10:57:44;9.82;;;5.60;;
9914;SDS011;4996;48.746;9.174;2024-01-07T11:00:14;7.97;;;4.40;;
9914;SDS011;4996;48.746;9.174;2024-01-07T11:11:18;9.05;;;4.88;;
9914;SDS011;4996;48.746;9.174;2024-01-07T11:13:48;6.47;;;3.95;;
9914;SDS011;4996;48.746;9.174;2024-01-07T11:16:14;10.60;;;5.90;;
9914;SDS011;4996;48.746;9.174;2024-01-07T11:19:06;10.30;;;5.60;;
9914;SDS011;4996;48.746;9.174;2024-01-07T11:21:32;10.60;;;5.30;;
9914;SDS011;4996;48.746;9.174;2024-01-07T11:23:57;9.97;;;5.33;;
9914;SDS011;4996;48.746;9.174;2024-01-07T11:26:23;8.50;;;6.40;;
9914;SDS011;4996;48.746;9.174;2024-01-07T11:28:55;8.80;;;5.30;;
9914;SDS011;4996;48.746;9.174;2024-01-07T11:31:42;7.25;;;4.57;;
9914;SDS011;4996;48.746;9.174;2024-01-07T11:34:08;9.00;;;4.70;;
9914;SDS011;4996;48.746;9.174;2024-01-07T11:36:35;5.90;;;4.90;;
9914;SDS011;4996;48.746;9.174;2024-01-07T11:39:01;6.55;;;4.60;;
9914;SDS011;4996;48.746;9.174;2024-01-07T11:41:27;9.00;;;6.03;;
9914;SDS011;4996;48.746;9.174;2024-01-07T11:43:55;11.60;;;6.32;;
9914;SDS011;4996;48.746;9.174;2024-01-07T11:46:24;11.68;;;6.25;;
9914;SDS011;4996;48.746;9.174;2024-01-07T11:48:54;9.95;;;5.82;;
9914;SDS011;4996;48.746;9.174;2024-01-07T11:51:29;11.60;;;6.50;;
9914;SDS011;4996;48.746;9.174;2024-01-07T11:53:56;10.45;;;6.28;;
9914;SDS011;4996;48.746;9.174;2024-01-07T11:56:23;14.27;;;8.23;;
9914;SDS011;4996;48.746;9.174;2024-01-07T11:58:49;10.25;;;6.10;;
9914;SDS011;4996;48.746;9.174;2024-01-07T12:01:15;12.47;;;6.80;;
9914;SDS011;4996;48.746;9.174;2024-01-07T12:03:43;32.55;;;15.73;;
9914;SDS011;4996;48.746;9.174;2024-01-07T12:06:09;9.80;;;6.50;;
9914;SDS011;4996;48.746;9.174;2024-01-07T12:08:38;13.57;;;7.55;;
9914;SDS011;4996;48.746;9.174;2024-01-07T12:11:05;12.77;;;7.45;;
9914;SDS011;4996;48.746;9.174;2024-01-07T12:13:30;10.60;;;6.20;;
9914;SDS011;4996;48.746;9.174;2024-01-07T12:15:56;9.37;;;4.87;;
9914;SDS011;4996;48.746;9.174;2024-01-07T12:18:22;8.23;;;5.33;;
9914;SDS011;4996;48.746;9.174;2024-01-07T12:20:56;8.90;;;7.15;;
9914;SDS011;4996;48.746;9.174;2024-01-07T12:23:22;9.88;;;5.97;;
9914;SDS011;4996;48.746;9.174;2024-01-07T12:25:48;7.87;;;5.30;;
9914;SDS011;4996;48.746;9.174;2024-01-07T12:28:14;14.80;;;7.43;;
9914;SDS011;4996;48.746;9.174;2024-01-07T12:30:42;9.50;;;6.40;;
9914;SDS011;4996;48.746;9.174;2024-01-07T12:33:08;10.17;;;5.43;;
9914;SDS011;4996;48.746;9.174;2024-01-07T12:35:34;6.27;;;4.93;;
9914;SDS011;4996;48.746;9.174;2024-01-07T12:38:09;9.45;;;6.22;;
9914;SDS011;4996;48.746;9.174;2024-01-07T12:40:34;9.90;;;6.47;;
9914;SDS011;4996;48.746;9.174;2024-01-07T12:43:01;9.13;;;5.97;;
9914;SDS011;4996;48.746;9.174;2024-01-07T12:45:27;8.10;;;5.90;;
9914;SDS011;4996;48.746;9.174;2024-01-07T12:47:52;10.70;;;6.93;;
9914;SDS011;4996;48.746;9.174;2024-01-07T12:50:20;7.32;;;5.10;;
9914;SDS011;4996;48.746;9.174;2024-01-07T12:52:48;6.57;;;5.00;;
9914;SDS011;4996;48.746;9.174;2024-01-07T12:55:13;12.67;;;6.57;;
9914;SDS011;4996;48.746;9.174;2024-01-07T12:57:39;10.00;;;6.33;;
9914;SDS011;4996;48.746;9.174;2024-01-07T13:00:05;11.63;;;7.10;;
9914;SDS011;4996;48.746;9.174;2024-01-07T13:02:33;6.38;;;5.03;;
9914;SDS011;4996;48.746;9.174;2024-01-07T13:04:59;13.60;;;6.97;;
9914;SDS011;4996;48.746;9.174;2024-01-07T13:07:25;8.63;;;6.50;;
9914;SDS011;4996;48.746;9.174;2024-01-07T13:09:51;10.60;;;6.37;;
9914;SDS011;4996;48.746;9.174;2024-01-07T13:12:16;10.83;;;7.60;;
9914;SDS011;4996;48.746;9.174;2024-01-07T13:14:42;12.17;;;8.03;;
9914;SDS011;4996;48.746;9.174;2024-01-07T13:17:07;11.10;;;7.23;;
9914;SDS011;4996;48.746;9.174;2024-01-07T13:19:33;13.60;;;5.77;;
9914;SDS011;4996;48.746;9.174;2024-01-07T13:21:59;11.87;;;6.93;;
9914;SDS011;4996;48.746;9.174;2024-01-07T13:24:26;13.60;;;7.30;;
9914;SDS011;4996;48.746;9.174;2024-01-07T13:26:52;12.75;;;7.95;;
9914;SDS011;4996;48.746;9.174;2024-01-07T13:29:18;8.50;;;5.50;;
9914;SDS011;4996;48.746;9.174;2024-01-07T13:31:44;7.87;;;6.80;;
9914;SDS011;4996;48.746;9.174;2024-01-07T13:34:09;6.83;;;4.73;;
9914;SDS011;4996;48.746;9.174;2024-01-07T13:36:35;8.45;;;6.18;;
9914;SDS011;4996;48.746;9.174;2024-01-07T13:39:01;13.70;;;7.40;;
9914;SDS011;4996;48.746;9.174;2024-01-07T13:41:27;4.77;;;2.63;;
9914;SDS011;4996;48.746;9.174;2024-01-07T13:43:54;9.88;;;6.72;;
9914;SDS011;4996;48.746;9.174;2024-01-07T13:46:20;9.55;;;6.40;;
9914;SDS011;4996;48.746;9.174;2024-01-07T13:48:48;9.15;;;7.70;;
9914;SDS011;4996;48.746;9.174;2024-01-07T13:51:13;7.17;;;4.17;;
9914;SDS011;4996;48.746;9.174;2024-01-07T13:53:39;10.03;;;5.70;;
9914;SDS011;4996;48.746;9.174;2024-01-07T13:56:05;10.60;;;7.43;;
9914;SDS011;4996;48.746;9.174;2024-01-07T13:58:32;8.90;;;6.85;;
9914;SDS011;4996;48.746;9.174;2024-01-07T14:00:57;11.77;;;8.23;;
9914;SDS011;4996;48.746;9.174;2024-01-07T14:03:23;8.67;;;5.17;;
9914;SDS011;4996;48.746;9.174;2024-01-07T14:05:48;18.90;;;11.03;;
9914;SDS011;4996;48.746;9.174;2024-01-07T14:08:14;12.93;;;7.57;;
9914;SDS011;4996;48.746;9.174;2024-01-07T14:10:40;13.07;;;7.50;;
9914;SDS011;4996;48.746;9.174;2024-01-07T14:13:06;11.10;;;7.50;;
9914;SDS011;4996;48.746;9.174;2024-01-07T14:15:31;11.43;;;6.57;;
9914;SDS011;4996;48.746;9.174;2024-01-07T14:17:57;10.90;;;7.00;;
9914;SDS011;4996;48.746;9.174;2024-01-07T14:20:22;14.03;;;7.93;;
9914;SDS011;4996;48.746;9.174;2024-01-07T14:22:48;19.63;;;8.50;;
9914;SDS011;4996;48.746;9.174;2024-01-07T14:25:14;16.58;;;7.20;;
9914;SDS011;4996;48.746;9.174;2024-01-07T14:27:40;8.83;;;5.37;;
9914;SDS011;4996;48.746;9.174;2024-01-07T14:30:05;12.53;;;7.20;;
9914;SDS011;4996;48.746;9.174;2024-01-07T14:32:32;13.52;;;8.40;;
9914;SDS011;4996;48.746;9.174;2024-01-07T14:34:59;19.77;;;7.97;;
9914;SDS011;4996;48.746;9.174;2024-01-07T14:37:24;11.00;;;7.47;;
9914;SDS011;4996;48.746;9.174;2024-01-07T14:39:52;11.10;;;6.88;;
9914;SDS011;4996;48.746;9.174;2024-01-07T14:42:18;13.47;;;5.83;;
9914;SDS011;4996;48.746;9.174;2024-01-07T14:44:43;12.67;;;7.27;;
9914;SDS011;4996;48.746;9.174;2024-01-07T14:47:09;10.17;;;5.77;;
9914;SDS011;4996;48.746;9.174;2024-01-07T14:49:34;15.07;;;9.63;;
9914;SDS011;4996;48.746;9.174;2024-01-07T14:52:00;18.53;;;8.20;;
9914;SDS011;4996;48.746;9.174;2024-01-07T14:54:26;15.23;;;10.00;;
9914;SDS011;4996;48.746;9.174;2024-01-07T14:56:51;13.43;;;7.70;;
9914;SDS011;4996;48.746;9.174;2024-01-07T14:59:17;12.10;;;8.30;;
9914;SDS011;4996;48.746;9.174;2024-01-07T15:01:42;6.93;;;5.27;;
9914;SDS011;4996;48.746;9.174;2024-01-07T15:04:09;10.00;;;6.70;;
9914;SDS011;4996;48.746;9.174;2024-01-07T15:06:39;11.65;;;6.93;;
9914;SDS011;4996;48.746;9.174;2024-01-07T15:09:06;17.52;;;8.65;;